Jeffers, MN

6:26 AM CDT on September 02, 2015 (GMT -0500)
Kimball Township | | Change Station
CLOSE
Current Station
Personal Weather Station
Location: Mountain Lake, MN
Elevation: 1352 ft
Nearby Weather Stations

Elev 1352 ft 43.82 °N, 94.92 °W | Updated 3 seconds ago

Clear
Clear
67.5 °F
Feels Like 67.5 °F
N
0.0
Wind Variable Wind from SSE

Today
High -- | Low -- °F
--% Chance of Precip.
Yesterday
High -- | Low -- °F
Precip. -- in
6:44 AM 7:55 PM
Waning Gibbous, 81% visible
Pressure 29.90 in
Visibility 5.0 miles
Clouds Clear
Dew Point 67 °F
Humidity 99%
Rainfall 0.10 in
Snow Depth Not available.
UV 0 out of 12
Pollen 10.40 out of 12
Air Quality Not available.
Flu Activity Not available.
METAR KMWM 021115Z AUTO 15005KT 5SM BR CLR 20/19 A2990 RMK AO2 LTG DSNT E
Pressure 29.90 in
Visibility 5.0 miles
Clouds Clear
Dew Point 67 °F
Humidity 99%
Rainfall 0.10 in
Snow Depth Not available.
UV 0 out of 12
Pollen 10.40 out of 12
Air Quality Not available.
Flu Activity Not available.
METAR KMWM 021115Z AUTO 15005KT 5SM BR CLR 20/19 A2990 RMK AO2 LTG DSNT E

10-Day Weather Forecast

×

Almanac

Astronomy

Sep. 02, 2015 Rise Set
Actual Time
Civil Twilight
Nautical Twilight
Astronomical Twilight
Moon
Length of Visible Light
Length of Day
Tomorrow will be .
, % of the Moon is Illuminated

Today's Extremes

State Highs State Lows

Community

WunderPhotos

Upload Photos

1,851,736 photos uploaded!

WunderBlogs® & News

Nearby

Air Quality

  Air Quality AQ Index Pollutant
Not available.

Snow Depth

Station Depth Elevation

Earthquake Activity

City Distance Mag. Time & Date
Minimum magnitude displayed is 2.5.

Coastal Water Temperatures

Place Temperature

Stations

Nearby Weather Stations

Station Location Temp. Windchill Dew Point Humidity Wind Precip. Elev Updated Type